sensor_id;sensor_type;location;lat;lon;timestamp;P1;durP1;ratioP1;P2;durP2;ratioP2
26536;SDS011;14204;51.262;5.488;2023-05-20T00:00:05;10.00;;;2.97;;
26536;SDS011;14204;51.262;5.488;2023-05-20T00:02:32;4.78;;;2.78;;
26536;SDS011;14204;51.262;5.488;2023-05-20T00:04:58;8.02;;;2.75;;
26536;SDS011;14204;51.262;5.488;2023-05-20T00:07:23;7.35;;;2.53;;
26536;SDS011;14204;51.262;5.488;2023-05-20T00:09:50;5.28;;;2.80;;
26536;SDS011;14204;51.262;5.488;2023-05-20T00:12:16;3.25;;;2.65;;
26536;SDS011;14204;51.262;5.488;2023-05-20T00:14:42;6.78;;;3.17;;
26536;SDS011;14204;51.262;5.488;2023-05-20T00:17:09;4.72;;;2.45;;
26536;SDS011;14204;51.262;5.488;2023-05-20T00:19:34;8.85;;;3.42;;
26536;SDS011;14204;51.262;5.488;2023-05-20T00:22:00;3.58;;;2.80;;
26536;SDS011;14204;51.262;5.488;2023-05-20T00:24:26;5.25;;;2.83;;
26536;SDS011;14204;51.262;5.488;2023-05-20T00:26:53;5.80;;;2.95;;
26536;SDS011;14204;51.262;5.488;2023-05-20T00:29:20;8.50;;;3.03;;
26536;SDS011;14204;51.262;5.488;2023-05-20T00:31:46;5.55;;;2.63;;
26536;SDS011;14204;51.262;5.488;2023-05-20T00:34:12;5.25;;;2.67;;
26536;SDS011;14204;51.262;5.488;2023-05-20T00:36:37;4.60;;;2.65;;
26536;SDS011;14204;51.262;5.488;2023-05-20T00:39:03;7.13;;;3.15;;
26536;SDS011;14204;51.262;5.488;2023-05-20T00:41:29;9.80;;;3.00;;
26536;SDS011;14204;51.262;5.488;2023-05-20T00:43:56;7.03;;;3.00;;
26536;SDS011;14204;51.262;5.488;2023-05-20T00:46:27;6.38;;;2.17;;
26536;SDS011;14204;51.262;5.488;2023-05-20T00:48:53;5.78;;;2.90;;
26536;SDS011;14204;51.262;5.488;2023-05-20T00:51:19;6.00;;;3.10;;
26536;SDS011;14204;51.262;5.488;2023-05-20T00:53:46;5.30;;;3.25;;
26536;SDS011;14204;51.262;5.488;2023-05-20T00:56:12;6.25;;;2.95;;
26536;SDS011;14204;51.262;5.488;2023-05-20T00:58:38;4.65;;;3.17;;
26536;SDS011;14204;51.262;5.488;2023-05-20T01:01:04;8.82;;;2.95;;
26536;SDS011;14204;51.262;5.488;2023-05-20T01:03:30;9.43;;;3.50;;
26536;SDS011;14204;51.262;5.488;2023-05-20T01:05:57;6.25;;;3.42;;
26536;SDS011;14204;51.262;5.488;2023-05-20T01:08:23;4.85;;;3.13;;
26536;SDS011;14204;51.262;5.488;2023-05-20T01:11:12;5.70;;;3.42;;
26536;SDS011;14204;51.262;5.488;2023-05-20T01:13:43;6.85;;;3.13;;
26536;SDS011;14204;51.262;5.488;2023-05-20T01:16:11;10.13;;;3.40;;
26536;SDS011;14204;51.262;5.488;2023-05-20T01:18:42;5.13;;;3.30;;
26536;SDS011;14204;51.262;5.488;2023-05-20T01:21:10;7.13;;;3.03;;
26536;SDS011;14204;51.262;5.488;2023-05-20T01:23:38;9.38;;;3.42;;
26536;SDS011;14204;51.262;5.488;2023-05-20T01:26:05;5.53;;;3.40;;
26536;SDS011;14204;51.262;5.488;2023-05-20T01:28:32;5.32;;;3.03;;
26536;SDS011;14204;51.262;5.488;2023-05-20T01:31:03;12.25;;;3.80;;
26536;SDS011;14204;51.262;5.488;2023-05-20T01:33:35;5.28;;;2.88;;
26536;SDS011;14204;51.262;5.488;2023-05-20T01:36:03;8.77;;;3.58;;
26536;SDS011;14204;51.262;5.488;2023-05-20T01:38:30;7.95;;;3.45;;
26536;SDS011;14204;51.262;5.488;2023-05-20T01:40:56;6.65;;;3.58;;
26536;SDS011;14204;51.262;5.488;2023-05-20T01:43:24;9.02;;;3.65;;
26536;SDS011;14204;51.262;5.488;2023-05-20T01:45:51;6.28;;;3.35;;
26536;SDS011;14204;51.262;5.488;2023-05-20T01:48:16;7.00;;;3.30;;
26536;SDS011;14204;51.262;5.488;2023-05-20T01:50:42;7.95;;;4.05;;
26536;SDS011;14204;51.262;5.488;2023-05-20T01:53:08;7.50;;;3.70;;
26536;SDS011;14204;51.262;5.488;2023-05-20T01:55:34;4.68;;;3.45;;
26536;SDS011;14204;51.262;5.488;2023-05-20T01:58:00;8.13;;;4.10;;
26536;SDS011;14204;51.262;5.488;2023-05-20T02:00:26;11.00;;;4.63;;
26536;SDS011;14204;51.262;5.488;2023-05-20T02:02:52;6.22;;;4.13;;
26536;SDS011;14204;51.262;5.488;2023-05-20T02:05:18;11.85;;;4.35;;
26536;SDS011;14204;51.262;5.488;2023-05-20T02:07:43;10.43;;;4.18;;
26536;SDS011;14204;51.262;5.488;2023-05-20T02:10:09;9.98;;;4.10;;
26536;SDS011;14204;51.262;5.488;2023-05-20T02:12:35;8.55;;;4.13;;
26536;SDS011;14204;51.262;5.488;2023-05-20T02:15:01;8.77;;;4.53;;
26536;SDS011;14204;51.262;5.488;2023-05-20T02:17:27;8.15;;;4.72;;
26536;SDS011;14204;51.262;5.488;2023-05-20T02:19:53;7.43;;;5.05;;
26536;SDS011;14204;51.262;5.488;2023-05-20T02:22:18;7.25;;;4.55;;
26536;SDS011;14204;51.262;5.488;2023-05-20T02:24:44;8.63;;;4.80;;
26536;SDS011;14204;51.262;5.488;2023-05-20T02:27:10;8.20;;;4.53;;
26536;SDS011;14204;51.262;5.488;2023-05-20T02:29:36;9.75;;;4.50;;
26536;SDS011;14204;51.262;5.488;2023-05-20T02:32:02;13.43;;;5.13;;
26536;SDS011;14204;51.262;5.488;2023-05-20T02:34:28;8.38;;;4.40;;
26536;SDS011;14204;51.262;5.488;2023-05-20T02:36:54;10.30;;;4.55;;
26536;SDS011;14204;51.262;5.488;2023-05-20T02:39:20;9.93;;;4.63;;
26536;SDS011;14204;51.262;5.488;2023-05-20T02:41:46;6.70;;;4.35;;
26536;SDS011;14204;51.262;5.488;2023-05-20T02:44:12;9.18;;;5.35;;
26536;SDS011;14204;51.262;5.488;2023-05-20T02:46:38;7.63;;;4.15;;
26536;SDS011;14204;51.262;5.488;2023-05-20T02:49:04;9.27;;;4.80;;
26536;SDS011;14204;51.262;5.488;2023-05-20T02:51:30;7.97;;;4.60;;
26536;SDS011;14204;51.262;5.488;2023-05-20T02:53:58;7.72;;;4.75;;
26536;SDS011;14204;51.262;5.488;2023-05-20T02:56:24;10.30;;;5.03;;
26536;SDS011;14204;51.262;5.488;2023-05-20T02:58:51;14.20;;;5.07;;
26536;SDS011;14204;51.262;5.488;2023-05-20T03:01:17;11.85;;;4.47;;
26536;SDS011;14204;51.262;5.488;2023-05-20T03:03:42;10.05;;;5.05;;
26536;SDS011;14204;51.262;5.488;2023-05-20T03:06:08;11.00;;;4.88;;
26536;SDS011;14204;51.262;5.488;2023-05-20T03:08:34;10.35;;;5.07;;
26536;SDS011;14204;51.262;5.488;2023-05-20T03:11:00;12.00;;;5.35;;
26536;SDS011;14204;51.262;5.488;2023-05-20T03:13:26;13.88;;;5.50;;
26536;SDS011;14204;51.262;5.488;2023-05-20T03:15:52;9.68;;;4.90;;
26536;SDS011;14204;51.262;5.488;2023-05-20T03:18:18;9.15;;;5.53;;
26536;SDS011;14204;51.262;5.488;2023-05-20T03:20:44;6.22;;;5.22;;
26536;SDS011;14204;51.262;5.488;2023-05-20T03:23:10;9.25;;;5.38;;
26536;SDS011;14204;51.262;5.488;2023-05-20T03:25:36;11.13;;;5.53;;
26536;SDS011;14204;51.262;5.488;2023-05-20T03:28:02;12.82;;;5.82;;
26536;SDS011;14204;51.262;5.488;2023-05-20T03:30:29;10.40;;;5.18;;
26536;SDS011;14204;51.262;5.488;2023-05-20T03:32:55;8.63;;;5.20;;
26536;SDS011;14204;51.262;5.488;2023-05-20T03:35:21;9.60;;;5.28;;
26536;SDS011;14204;51.262;5.488;2023-05-20T03:37:47;9.55;;;5.68;;
26536;SDS011;14204;51.262;5.488;2023-05-20T03:40:15;10.63;;;5.75;;
26536;SDS011;14204;51.262;5.488;2023-05-20T03:42:41;10.15;;;5.72;;
26536;SDS011;14204;51.262;5.488;2023-05-20T03:45:07;10.70;;;5.60;;
26536;SDS011;14204;51.262;5.488;2023-05-20T03:47:33;12.25;;;5.90;;
26536;SDS011;14204;51.262;5.488;2023-05-20T03:49:59;9.23;;;5.80;;
26536;SDS011;14204;51.262;5.488;2023-05-20T03:52:25;8.07;;;5.05;;
26536;SDS011;14204;51.262;5.488;2023-05-20T03:54:51;11.98;;;6.50;;
26536;SDS011;14204;51.262;5.488;2023-05-20T03:57:18;11.50;;;5.47;;
26536;SDS011;14204;51.262;5.488;2023-05-20T03:59:44;9.05;;;5.60;;
26536;SDS011;14204;51.262;5.488;2023-05-20T04:02:09;14.68;;;6.28;;
26536;SDS011;14204;51.262;5.488;2023-05-20T04:04:36;10.82;;;5.57;;
26536;SDS011;14204;51.262;5.488;2023-05-20T04:07:02;9.32;;;6.80;;
26536;SDS011;14204;51.262;5.488;2023-05-20T04:09:29;8.63;;;6.80;;
26536;SDS011;14204;51.262;5.488;2023-05-20T04:11:54;13.18;;;6.22;;
26536;SDS011;14204;51.262;5.488;2023-05-20T04:14:21;11.13;;;6.50;;
26536;SDS011;14204;51.262;5.488;2023-05-20T04:16:46;10.80;;;6.78;;
26536;SDS011;14204;51.262;5.488;2023-05-20T04:19:14;10.02;;;6.40;;
26536;SDS011;14204;51.262;5.488;2023-05-20T04:21:41;8.52;;;5.68;;
26536;SDS011;14204;51.262;5.488;2023-05-20T04:24:08;13.45;;;5.85;;
26536;SDS011;14204;51.262;5.488;2023-05-20T04:26:33;13.00;;;6.28;;
26536;SDS011;14204;51.262;5.488;2023-05-20T04:29:00;8.82;;;5.47;;
26536;SDS011;14204;51.262;5.488;2023-05-20T04:31:28;14.95;;;6.43;;
26536;SDS011;14204;51.262;5.488;2023-05-20T04:33:55;9.75;;;6.18;;
26536;SDS011;14204;51.262;5.488;2023-05-20T04:36:21;7.80;;;5.63;;
26536;SDS011;14204;51.262;5.488;2023-05-20T04:38:53;12.70;;;5.80;;
26536;SDS011;14204;51.262;5.488;2023-05-20T04:41:22;10.82;;;5.43;;
26536;SDS011;14204;51.262;5.488;2023-05-20T04:43:48;7.50;;;5.13;;
26536;SDS011;14204;51.262;5.488;2023-05-20T04:46:14;10.40;;;6.00;;
26536;SDS011;14204;51.262;5.488;2023-05-20T04:48:40;10.65;;;6.13;;
26536;SDS011;14204;51.262;5.488;2023-05-20T04:51:08;9.13;;;5.03;;
26536;SDS011;14204;51.262;5.488;2023-05-20T04:53:34;10.45;;;5.15;;
26536;SDS011;14204;51.262;5.488;2023-05-20T04:56:00;12.35;;;5.60;;
26536;SDS011;14204;51.262;5.488;2023-05-20T04:58:26;8.45;;;4.80;;
26536;SDS011;14204;51.262;5.488;2023-05-20T05:00:53;10.43;;;5.90;;
26536;SDS011;14204;51.262;5.488;2023-05-20T05:03:20;10.27;;;5.93;;
26536;SDS011;14204;51.262;5.488;2023-05-20T05:05:46;9.05;;;5.30;;
26536;SDS011;14204;51.262;5.488;2023-05-20T05:08:12;7.50;;;5.88;;
26536;SDS011;14204;51.262;5.488;2023-05-20T05:10:38;8.27;;;5.43;;
26536;SDS011;14204;51.262;5.488;2023-05-20T05:13:03;12.35;;;6.28;;
26536;SDS011;14204;51.262;5.488;2023-05-20T05:15:29;7.15;;;5.07;;
26536;SDS011;14204;51.262;5.488;2023-05-20T05:17:55;10.75;;;6.13;;
26536;SDS011;14204;51.262;5.488;2023-05-20T05:20:21;11.60;;;6.13;;
26536;SDS011;14204;51.262;5.488;2023-05-20T05:22:46;11.50;;;5.50;;
26536;SDS011;14204;51.262;5.488;2023-05-20T05:25:14;10.65;;;5.40;;
26536;SDS011;14204;51.262;5.488;2023-05-20T05:27:40;10.70;;;5.60;;
26536;SDS011;14204;51.262;5.488;2023-05-20T05:30:06;14.20;;;5.88;;
26536;SDS011;14204;51.262;5.488;2023-05-20T05:32:33;9.10;;;5.60;;
26536;SDS011;14204;51.262;5.488;2023-05-20T05:34:59;9.77;;;6.20;;
26536;SDS011;14204;51.262;5.488;2023-05-20T05:37:24;8.07;;;5.53;;
26536;SDS011;14204;51.262;5.488;2023-05-20T05:39:51;10.20;;;5.50;;
26536;SDS011;14204;51.262;5.488;2023-05-20T05:42:16;12.05;;;5.35;;
26536;SDS011;14204;51.262;5.488;2023-05-20T05:44:42;7.38;;;4.95;;
26536;SDS011;14204;51.262;5.488;2023-05-20T05:47:08;7.93;;;4.93;;
26536;SDS011;14204;51.262;5.488;2023-05-20T05:49:34;7.05;;;5.45;;
26536;SDS011;14204;51.262;5.488;2023-05-20T05:52:00;12.07;;;4.97;;
26536;SDS011;14204;51.262;5.488;2023-05-20T05:54:26;8.63;;;5.05;;
26536;SDS011;14204;51.262;5.488;2023-05-20T05:56:52;8.60;;;5.25;;
26536;SDS011;14204;51.262;5.488;2023-05-20T05:59:18;7.75;;;5.25;;
26536;SDS011;14204;51.262;5.488;2023-05-20T06:01:44;8.55;;;5.18;;
26536;SDS011;14204;51.262;5.488;2023-05-20T06:04:10;7.95;;;5.15;;
26536;SDS011;14204;51.262;5.488;2023-05-20T06:06:36;9.35;;;5.70;;
26536;SDS011;14204;51.262;5.488;2023-05-20T06:09:02;5.35;;;4.25;;
26536;SDS011;14204;51.262;5.488;2023-05-20T06:11:28;11.38;;;4.60;;
26536;SDS011;14204;51.262;5.488;2023-05-20T06:13:54;7.45;;;4.78;;
26536;SDS011;14204;51.262;5.488;2023-05-20T06:16:20;6.03;;;4.53;;
26536;SDS011;14204;51.262;5.488;2023-05-20T06:18:46;7.57;;;4.70;;
26536;SDS011;14204;51.262;5.488;2023-05-20T06:21:14;7.15;;;4.70;;
26536;SDS011;14204;51.262;5.488;2023-05-20T06:23:40;10.07;;;5.10;;
26536;SDS011;14204;51.262;5.488;2023-05-20T06:26:06;7.38;;;5.13;;
26536;SDS011;14204;51.262;5.488;2023-05-20T06:28:31;8.10;;;4.43;;
26536;SDS011;14204;51.262;5.488;2023-05-20T06:30:57;5.25;;;4.13;;
26536;SDS011;14204;51.262;5.488;2023-05-20T06:33:23;8.82;;;4.65;;
26536;SDS011;14204;51.262;5.488;2023-05-20T06:35:53;5.85;;;4.68;;
26536;SDS011;14204;51.262;5.488;2023-05-20T06:38:19;6.57;;;4.13;;
26536;SDS011;14204;51.262;5.488;2023-05-20T06:40:45;9.32;;;4.82;;
26536;SDS011;14204;51.262;5.488;2023-05-20T06:43:14;6.68;;;4.53;;
26536;SDS011;14204;51.262;5.488;2023-05-20T06:45:40;8.38;;;4.80;;
26536;SDS011;14204;51.262;5.488;2023-05-20T06:48:07;8.13;;;4.35;;
26536;SDS011;14204;51.262;5.488;2023-05-20T06:50:33;8.43;;;5.15;;
26536;SDS011;14204;51.262;5.488;2023-05-20T06:52:59;5.95;;;3.97;;
26536;SDS011;14204;51.262;5.488;2023-05-20T06:55:25;8.52;;;4.75;;
26536;SDS011;14204;51.262;5.488;2023-05-20T06:57:51;5.63;;;4.47;;
26536;SDS011;14204;51.262;5.488;2023-05-20T07:00:17;8.85;;;4.85;;
26536;SDS011;14204;51.262;5.488;2023-05-20T07:02:43;8.73;;;4.07;;
26536;SDS011;14204;51.262;5.488;2023-05-20T07:05:10;10.43;;;4.45;;
26536;SDS011;14204;51.262;5.488;2023-05-20T07:07:36;6.53;;;4.38;;
26536;SDS011;14204;51.262;5.488;2023-05-20T07:10:03;10.80;;;5.15;;
26536;SDS011;14204;51.262;5.488;2023-05-20T07:12:30;8.38;;;4.07;;
26536;SDS011;14204;51.262;5.488;2023-05-20T07:14:56;6.32;;;4.05;;
26536;SDS011;14204;51.262;5.488;2023-05-20T07:17:22;9.63;;;4.63;;
26536;SDS011;14204;51.262;5.488;2023-05-20T07:19:48;8.65;;;4.97;;
26536;SDS011;14204;51.262;5.488;2023-05-20T07:22:14;6.05;;;4.57;;
26536;SDS011;14204;51.262;5.488;2023-05-20T07:24:40;6.03;;;4.85;;
26536;SDS011;14204;51.262;5.488;2023-05-20T07:27:06;10.35;;;4.22;;
26536;SDS011;14204;51.262;5.488;2023-05-20T07:29:33;10.15;;;4.30;;
26536;SDS011;14204;51.262;5.488;2023-05-20T07:32:02;6.43;;;3.92;;
26536;SDS011;14204;51.262;5.488;2023-05-20T07:34:29;4.88;;;4.38;;
26536;SDS011;14204;51.262;5.488;2023-05-20T07:36:55;7.10;;;4.40;;
26536;SDS011;14204;51.262;5.488;2023-05-20T07:39:22;8.85;;;5.07;;
26536;SDS011;14204;51.262;5.488;2023-05-20T07:41:48;8.18;;;4.38;;
26536;SDS011;14204;51.262;5.488;2023-05-20T07:44:14;8.32;;;4.28;;
26536;SDS011;14204;51.262;5.488;2023-05-20T07:46:40;6.18;;;4.97;;
26536;SDS011;14204;51.262;5.488;2023-05-20T07:49:08;6.88;;;4.47;;
26536;SDS011;14204;51.262;5.488;2023-05-20T07:51:34;6.05;;;4.47;;
26536;SDS011;14204;51.262;5.488;2023-05-20T07:54:00;7.47;;;4.97;;
26536;SDS011;14204;51.262;5.488;2023-05-20T07:56:26;7.57;;;4.45;;
26536;SDS011;14204;51.262;5.488;2023-05-20T07:58:53;9.57;;;3.65;;
26536;SDS011;14204;51.262;5.488;2023-05-20T08:01:22;6.00;;;3.58;;
26536;SDS011;14204;51.262;5.488;2023-05-20T08:03:48;6.07;;;3.78;;
26536;SDS011;14204;51.262;5.488;2023-05-20T08:06:14;5.82;;;3.45;;
26536;SDS011;14204;51.262;5.488;2023-05-20T08:08:40;6.10;;;3.78;;
26536;SDS011;14204;51.262;5.488;2023-05-20T08:11:07;8.52;;;3.75;;
26536;SDS011;14204;51.262;5.488;2023-05-20T08:13:33;8.27;;;3.30;;
26536;SDS011;14204;51.262;5.488;2023-05-20T08:15:59;8.18;;;3.72;;
26536;SDS011;14204;51.262;5.488;2023-05-20T08:18:28;4.47;;;3.40;;
26536;SDS011;14204;51.262;5.488;2023-05-20T08:20:53;4.28;;;3.50;;
26536;SDS011;14204;51.262;5.488;2023-05-20T08:23:19;6.47;;;3.05;;
26536;SDS011;14204;51.262;5.488;2023-05-20T08:25:45;5.93;;;3.33;;
26536;SDS011;14204;51.262;5.488;2023-05-20T08:28:12;6.47;;;3.60;;
26536;SDS011;14204;51.262;5.488;2023-05-20T08:30:38;8.73;;;3.17;;
26536;SDS011;14204;51.262;5.488;2023-05-20T08:33:04;5.32;;;3.35;;
26536;SDS011;14204;51.262;5.488;2023-05-20T08:35:29;6.20;;;3.00;;
26536;SDS011;14204;51.262;5.488;2023-05-20T08:37:55;4.47;;;3.13;;
26536;SDS011;14204;51.262;5.488;2023-05-20T08:40:21;7.00;;;3.45;;
26536;SDS011;14204;51.262;5.488;2023-05-20T08:42:48;4.45;;;3.00;;
26536;SDS011;14204;51.262;5.488;2023-05-20T08:45:17;8.20;;;3.78;;
26536;SDS011;14204;51.262;5.488;2023-05-20T08:47:45;5.32;;;3.20;;
26536;SDS011;14204;51.262;5.488;2023-05-20T08:50:11;4.82;;;3.28;;
26536;SDS011;14204;51.262;5.488;2023-05-20T08:52:42;7.03;;;3.33;;
26536;SDS011;14204;51.262;5.488;2023-05-20T08:55:32;6.72;;;3.40;;
26536;SDS011;14204;51.262;5.488;2023-05-20T08:58:03;4.35;;;3.85;;
26536;SDS011;14204;51.262;5.488;2023-05-20T09:00:29;9.20;;;3.53;;
26536;SDS011;14204;51.262;5.488;2023-05-20T09:02:56;5.10;;;3.08;;
26536;SDS011;14204;51.262;5.488;2023-05-20T09:05:23;6.45;;;3.00;;
26536;SDS011;14204;51.262;5.488;2023-05-20T09:07:48;3.70;;;3.38;;
26536;SDS011;14204;51.262;5.488;2023-05-20T09:10:14;5.75;;;2.75;;
26536;SDS011;14204;51.262;5.488;2023-05-20T09:12:40;8.25;;;2.95;;
26536;SDS011;14204;51.262;5.488;2023-05-20T09:15:06;4.63;;;2.90;;
26536;SDS011;14204;51.262;5.488;2023-05-20T09:17:35;5.45;;;2.92;;
26536;SDS011;14204;51.262;5.488;2023-05-20T09:20:05;7.30;;;3.38;;
26536;SDS011;14204;51.262;5.488;2023-05-20T09:22:32;3.35;;;2.97;;
26536;SDS011;14204;51.262;5.488;2023-05-20T09:24:58;9.77;;;3.60;;
26536;SDS011;14204;51.262;5.488;2023-05-20T09:27:24;5.38;;;2.55;;
26536;SDS011;14204;51.262;5.488;2023-05-20T09:29:50;8.07;;;3.15;;
26536;SDS011;14204;51.262;5.488;2023-05-20T09:32:16;5.45;;;3.05;;
26536;SDS011;14204;51.262;5.488;2023-05-20T09:34:45;6.97;;;3.22;;
26536;SDS011;14204;51.262;5.488;2023-05-20T09:37:11;3.97;;;3.00;;
26536;SDS011;14204;51.262;5.488;2023-05-20T09:39:53;6.60;;;3.45;;
26536;SDS011;14204;51.262;5.488;2023-05-20T09:42:27;4.85;;;3.85;;
26536;SDS011;14204;51.262;5.488;2023-05-20T09:44:59;9.13;;;3.28;;
26536;SDS011;14204;51.262;5.488;2023-05-20T09:47:28;3.63;;;3.28;;
26536;SDS011;14204;51.262;5.488;2023-05-20T09:49:56;9.18;;;3.38;;
26536;SDS011;14204;51.262;5.488;2023-05-20T09:52:22;6.55;;;3.08;;
26536;SDS011;14204;51.262;5.488;2023-05-20T09:54:52;3.70;;;2.80;;
26536;SDS011;14204;51.262;5.488;2023-05-20T09:57:20;5.70;;;3.30;;
26536;SDS011;14204;51.262;5.488;2023-05-20T09:59:46;6.63;;;3.67;;
26536;SDS011;14204;51.262;5.488;2023-05-20T10:02:14;6.68;;;3.25;;
26536;SDS011;14204;51.262;5.488;2023-05-20T10:04:40;6.40;;;3.85;;
26536;SDS011;14204;51.262;5.488;2023-05-20T10:10:12;4.40;;;2.95;;
26536;SDS011;14204;51.262;5.488;2023-05-20T10:21:16;3.40;;;3.10;;
26536;SDS011;14204;51.262;5.488;2023-05-20T10:23:46;6.93;;;3.47;;
26536;SDS011;14204;51.262;5.488;2023-05-20T10:26:12;4.25;;;3.05;;
26536;SDS011;14204;51.262;5.488;2023-05-20T10:28:39;3.58;;;3.28;;
26536;SDS011;14204;51.262;5.488;2023-05-20T10:31:15;9.38;;;3.17;;
26536;SDS011;14204;51.262;5.488;2023-05-20T10:33:42;3.15;;;2.85;;
26536;SDS011;14204;51.262;5.488;2023-05-20T10:36:09;5.30;;;3.78;;
26536;SDS011;14204;51.262;5.488;2023-05-20T10:38:35;5.97;;;3.00;;
26536;SDS011;14204;51.262;5.488;2023-05-20T10:41:07;5.38;;;3.90;;
26536;SDS011;14204;51.262;5.488;2023-05-20T10:43:36;4.72;;;3.25;;
26536;SDS011;14204;51.262;5.488;2023-05-20T10:46:02;3.08;;;2.78;;
26536;SDS011;14204;51.262;5.488;2023-05-20T10:48:28;3.55;;;3.25;;
26536;SDS011;14204;51.262;5.488;2023-05-20T10:50:56;6.72;;;3.97;;
26536;SDS011;14204;51.262;5.488;2023-05-20T10:53:37;6.38;;;3.83;;
26536;SDS011;14204;51.262;5.488;2023-05-20T10:56:04;7.18;;;3.42;;
26536;SDS011;14204;51.262;5.488;2023-05-20T10:58:37;4.97;;;2.92;;
26536;SDS011;14204;51.262;5.488;2023-05-20T11:01:03;8.00;;;3.28;;
26536;SDS011;14204;51.262;5.488;2023-05-20T11:03:29;3.33;;;2.90;;
26536;SDS011;14204;51.262;5.488;2023-05-20T11:05:57;6.10;;;2.72;;
26536;SDS011;14204;51.262;5.488;2023-05-20T11:08:22;3.83;;;3.13;;
26536;SDS011;14204;51.262;5.488;2023-05-20T11:10:55;5.72;;;3.85;;
26536;SDS011;14204;51.262;5.488;2023-05-20T11:13:21;3.95;;;3.60;;
26536;SDS011;14204;51.262;5.488;2023-05-20T11:15:47;6.47;;;4.05;;
26536;SDS011;14204;51.262;5.488;2023-05-20T11:18:14;4.93;;;3.38;;
26536;SDS011;14204;51.262;5.488;2023-05-20T11:20:40;5.28;;;3.60;;
26536;SDS011;14204;51.262;5.488;2023-05-20T11:23:10;10.60;;;3.50;;
26536;SDS011;14204;51.262;5.488;2023-05-20T11:25:39;13.63;;;5.05;;
26536;SDS011;14204;51.262;5.488;2023-05-20T11:28:11;9.85;;;3.83;;
26536;SDS011;14204;51.262;5.488;2023-05-20T11:30:43;5.93;;;3.75;;
26536;SDS011;14204;51.262;5.488;2023-05-20T11:33:12;4.72;;;4.20;;
26536;SDS011;14204;51.262;5.488;2023-05-20T11:35:51;7.03;;;4.47;;
26536;SDS011;14204;51.262;5.488;2023-05-20T11:38:18;5.97;;;3.80;;
26536;SDS011;14204;51.262;5.488;2023-05-20T11:40:46;3.88;;;3.58;;
26536;SDS011;14204;51.262;5.488;2023-05-20T11:43:22;5.47;;;3.28;;
26536;SDS011;14204;51.262;5.488;2023-05-20T11:45:52;6.50;;;4.60;;
26536;SDS011;14204;51.262;5.488;2023-05-20T11:48:19;6.95;;;4.38;;
26536;SDS011;14204;51.262;5.488;2023-05-20T11:50:46;4.75;;;3.92;;
26536;SDS011;14204;51.262;5.488;2023-05-20T11:53:16;3.63;;;3.40;;
26536;SDS011;14204;51.262;5.488;2023-05-20T11:55:48;4.05;;;3.42;;
26536;SDS011;14204;51.262;5.488;2023-05-20T11:58:24;3.38;;;3.10;;
26536;SDS011;14204;51.262;5.488;2023-05-20T12:00:51;9.43;;;3.60;;
26536;SDS011;14204;51.262;5.488;2023-05-20T12:03:17;7.85;;;3.53;;
26536;SDS011;14204;51.262;5.488;2023-05-20T12:05:43;6.32;;;3.78;;
26536;SDS011;14204;51.262;5.488;2023-05-20T12:08:11;7.05;;;4.10;;
26536;SDS011;14204;51.262;5.488;2023-05-20T12:10:37;4.25;;;3.15;;
26536;SDS011;14204;51.262;5.488;2023-05-20T12:13:03;4.00;;;3.50;;
26536;SDS011;14204;51.262;5.488;2023-05-20T12:15:32;5.53;;;3.47;;
26536;SDS011;14204;51.262;5.488;2023-05-20T12:18:01;8.55;;;3.58;;
26536;SDS011;14204;51.262;5.488;2023-05-20T12:20:28;7.78;;;4.32;;
26536;SDS011;14204;51.262;5.488;2023-05-20T12:22:54;4.25;;;3.58;;
26536;SDS011;14204;51.262;5.488;2023-05-20T12:25:20;8.90;;;4.38;;
26536;SDS011;14204;51.262;5.488;2023-05-20T12:27:47;5.60;;;4.78;;
26536;SDS011;14204;51.262;5.488;2023-05-20T12:30:18;6.38;;;3.50;;
26536;SDS011;14204;51.262;5.488;2023-05-20T12:32:45;8.40;;;4.15;;
26536;SDS011;14204;51.262;5.488;2023-05-20T12:35:11;4.00;;;3.60;;
26536;SDS011;14204;51.262;5.488;2023-05-20T12:37:38;5.10;;;3.17;;
26536;SDS011;14204;51.262;5.488;2023-05-20T12:40:06;5.70;;;3.88;;
26536;SDS011;14204;51.262;5.488;2023-05-20T12:42:38;9.43;;;3.50;;
26536;SDS011;14204;51.262;5.488;2023-05-20T12:45:05;5.63;;;3.90;;
26536;SDS011;14204;51.262;5.488;2023-05-20T12:47:33;7.28;;;4.18;;
26536;SDS011;14204;51.262;5.488;2023-05-20T12:49:59;3.83;;;3.47;;
26536;SDS011;14204;51.262;5.488;2023-05-20T12:52:26;8.25;;;4.03;;
26536;SDS011;14204;51.262;5.488;2023-05-20T12:54:55;6.55;;;4.38;;
26536;SDS011;14204;51.262;5.488;2023-05-20T12:57:21;6.25;;;3.75;;
26536;SDS011;14204;51.262;5.488;2023-05-20T12:59:47;7.78;;;3.88;;
26536;SDS011;14204;51.262;5.488;2023-05-20T13:02:13;6.10;;;3.45;;
26536;SDS011;14204;51.262;5.488;2023-05-20T13:04:39;5.65;;;4.85;;
26536;SDS011;14204;51.262;5.488;2023-05-20T13:07:05;5.18;;;4.38;;
26536;SDS011;14204;51.262;5.488;2023-05-20T13:09:31;4.65;;;3.88;;
26536;SDS011;14204;51.262;5.488;2023-05-20T13:11:58;5.35;;;3.85;;
26536;SDS011;14204;51.262;5.488;2023-05-20T13:14:25;5.57;;;3.67;;
26536;SDS011;14204;51.262;5.488;2023-05-20T13:16:50;7.43;;;4.13;;
26536;SDS011;14204;51.262;5.488;2023-05-20T13:19:19;5.78;;;3.97;;
26536;SDS011;14204;51.262;5.488;2023-05-20T13:21:47;4.30;;;3.90;;
26536;SDS011;14204;51.262;5.488;2023-05-20T13:24:13;6.28;;;3.85;;
26536;SDS011;14204;51.262;5.488;2023-05-20T13:26:39;6.30;;;3.75;;
26536;SDS011;14204;51.262;5.488;2023-05-20T13:29:05;6.03;;;3.83;;
26536;SDS011;14204;51.262;5.488;2023-05-20T13:31:31;5.60;;;3.97;;
26536;SDS011;14204;51.262;5.488;2023-05-20T13:33:57;5.63;;;4.40;;
26536;SDS011;14204;51.262;5.488;2023-05-20T13:36:24;4.97;;;4.13;;
26536;SDS011;14204;51.262;5.488;2023-05-20T13:38:51;6.75;;;4.20;;
26536;SDS011;14204;51.262;5.488;2023-05-20T13:41:17;6.15;;;4.28;;
26536;SDS011;14204;51.262;5.488;2023-05-20T13:43:42;5.55;;;3.90;;
26536;SDS011;14204;51.262;5.488;2023-05-20T13:46:08;4.45;;;3.67;;
26536;SDS011;14204;51.262;5.488;2023-05-20T13:48:35;5.93;;;4.10;;
26536;SDS011;14204;51.262;5.488;2023-05-20T13:51:00;5.95;;;4.03;;
26536;SDS011;14204;51.262;5.488;2023-05-20T13:53:27;6.32;;;4.60;;
26536;SDS011;14204;51.262;5.488;2023-05-20T13:55:52;7.28;;;4.20;;
26536;SDS011;14204;51.262;5.488;2023-05-20T13:58:18;7.22;;;4.43;;
26536;SDS011;14204;51.262;5.488;2023-05-20T14:00:44;6.88;;;4.63;;
26536;SDS011;14204;51.262;5.488;2023-05-20T14:03:10;8.00;;;3.67;;
26536;SDS011;14204;51.262;5.488;2023-05-20T14:05:36;4.13;;;3.20;;
26536;SDS011;14204;51.262;5.488;2023-05-20T14:08:02;4.85;;;4.30;;
26536;SDS011;14204;51.262;5.488;2023-05-20T14:10:28;6.32;;;3.58;;
26536;SDS011;14204;51.262;5.488;2023-05-20T14:12:56;4.10;;;3.65;;
26536;SDS011;14204;51.262;5.488;2023-05-20T14:15:22;6.30;;;3.50;;
26536;SDS011;14204;51.262;5.488;2023-05-20T14:17:48;8.38;;;4.25;;
26536;SDS011;14204;51.262;5.488;2023-05-20T14:20:14;7.20;;;4.20;;
26536;SDS011;14204;51.262;5.488;2023-05-20T14:22:40;5.22;;;3.92;;
26536;SDS011;14204;51.262;5.488;2023-05-20T14:25:06;3.85;;;3.50;;
26536;SDS011;14204;51.262;5.488;2023-05-20T14:27:32;5.07;;;4.60;;
26536;SDS011;14204;51.262;5.488;2023-05-20T14:29:58;6.45;;;4.18;;
26536;SDS011;14204;51.262;5.488;2023-05-20T14:32:24;5.95;;;4.00;;
26536;SDS011;14204;51.262;5.488;2023-05-20T14:34:50;4.10;;;3.80;;
26536;SDS011;14204;51.262;5.488;2023-05-20T14:37:17;5.00;;;4.45;;
26536;SDS011;14204;51.262;5.488;2023-05-20T14:39:43;5.60;;;3.65;;
26536;SDS011;14204;51.262;5.488;2023-05-20T14:42:10;4.45;;;3.92;;
26536;SDS011;14204;51.262;5.488;2023-05-20T14:44:36;7.82;;;4.40;;
26536;SDS011;14204;51.262;5.488;2023-05-20T14:47:02;5.10;;;3.20;;
26536;SDS011;14204;51.262;5.488;2023-05-20T14:49:28;5.28;;;3.92;;
26536;SDS011;14204;51.262;5.488;2023-05-20T14:51:53;3.03;;;2.72;;
26536;SDS011;14204;51.262;5.488;2023-05-20T14:54:19;4.72;;;3.05;;